sensor_id;sensor_type;location;lat;lon;timestamp;P1;durP1;ratioP1;P2;durP2;ratioP2
579;SDS011;276;48.392;9.950;2023-03-09T00:00:14;3.50;;;3.20;;
579;SDS011;276;48.392;9.950;2023-03-09T00:02:46;3.50;;;2.77;;
579;SDS011;276;48.392;9.950;2023-03-09T00:05:14;3.67;;;3.37;;
579;SDS011;276;48.392;9.950;2023-03-09T00:07:47;3.70;;;3.40;;
579;SDS011;276;48.392;9.950;2023-03-09T00:10:15;4.63;;;3.30;;
579;SDS011;276;48.392;9.950;2023-03-09T00:12:41;4.10;;;3.50;;
579;SDS011;276;48.392;9.950;2023-03-09T00:15:09;3.00;;;2.80;;
579;SDS011;276;48.392;9.950;2023-03-09T00:17:37;3.43;;;3.07;;
579;SDS011;276;48.392;9.950;2023-03-09T00:20:04;3.30;;;2.40;;
579;SDS011;276;48.392;9.950;2023-03-09T00:22:48;4.13;;;2.90;;
579;SDS011;276;48.392;9.950;2023-03-09T00:25:15;3.90;;;2.47;;
579;SDS011;276;48.392;9.950;2023-03-09T00:27:46;2.50;;;2.30;;
579;SDS011;276;48.392;9.950;2023-03-09T00:30:13;2.97;;;2.60;;
579;SDS011;276;48.392;9.950;2023-03-09T00:32:41;2.83;;;2.63;;
579;SDS011;276;48.392;9.950;2023-03-09T00:35:09;3.33;;;2.53;;
579;SDS011;276;48.392;9.950;2023-03-09T00:37:37;3.00;;;2.80;;
579;SDS011;276;48.392;9.950;2023-03-09T00:40:04;2.57;;;2.37;;
579;SDS011;276;48.392;9.950;2023-03-09T00:42:41;2.37;;;2.20;;
579;SDS011;276;48.392;9.950;2023-03-09T00:45:07;3.53;;;2.60;;
579;SDS011;276;48.392;9.950;2023-03-09T00:47:39;2.57;;;2.33;;
579;SDS011;276;48.392;9.950;2023-03-09T00:50:07;2.73;;;2.33;;
579;SDS011;276;48.392;9.950;2023-03-09T00:52:33;2.77;;;2.57;;
579;SDS011;276;48.392;9.950;2023-03-09T00:54:59;2.43;;;2.33;;
579;SDS011;276;48.392;9.950;2023-03-09T00:57:25;2.30;;;2.20;;
579;SDS011;276;48.392;9.950;2023-03-09T00:59:51;2.97;;;2.77;;
579;SDS011;276;48.392;9.950;2023-03-09T01:02:17;1.93;;;1.83;;
579;SDS011;276;48.392;9.950;2023-03-09T01:04:45;2.20;;;1.87;;
579;SDS011;276;48.392;9.950;2023-03-09T01:07:15;1.80;;;1.70;;
579;SDS011;276;48.392;9.950;2023-03-09T01:09:42;2.00;;;1.80;;
579;SDS011;276;48.392;9.950;2023-03-09T01:12:10;2.33;;;2.13;;
579;SDS011;276;48.392;9.950;2023-03-09T01:14:38;2.80;;;2.60;;
579;SDS011;276;48.392;9.950;2023-03-09T01:17:06;2.00;;;1.90;;
579;SDS011;276;48.392;9.950;2023-03-09T01:19:34;2.07;;;1.80;;
579;SDS011;276;48.392;9.950;2023-03-09T01:22:02;1.53;;;1.43;;
579;SDS011;276;48.392;9.950;2023-03-09T01:24:30;2.30;;;1.60;;
579;SDS011;276;48.392;9.950;2023-03-09T01:26:58;2.07;;;1.67;;
579;SDS011;276;48.392;9.950;2023-03-09T01:29:26;1.60;;;1.50;;
579;SDS011;276;48.392;9.950;2023-03-09T01:31:53;1.90;;;1.60;;
579;SDS011;276;48.392;9.950;2023-03-09T01:34:22;2.00;;;1.73;;
579;SDS011;276;48.392;9.950;2023-03-09T01:36:52;3.57;;;2.27;;
579;SDS011;276;48.392;9.950;2023-03-09T01:39:20;4.03;;;1.20;;
579;SDS011;276;48.392;9.950;2023-03-09T01:41:48;1.00;;;0.47;;
579;SDS011;276;48.392;9.950;2023-03-09T01:44:14;3.27;;;0.60;;
579;SDS011;276;48.392;9.950;2023-03-09T01:51:56;0.80;;;0.37;;
579;SDS011;276;48.392;9.950;2023-03-09T02:00:08;2.57;;;0.60;;
579;SDS011;276;48.392;9.950;2023-03-09T02:02:39;1.77;;;0.60;;
579;SDS011;276;48.392;9.950;2023-03-09T02:05:23;1.13;;;1.03;;
579;SDS011;276;48.392;9.950;2023-03-09T02:07:56;0.53;;;0.40;;
579;SDS011;276;48.392;9.950;2023-03-09T02:10:34;2.97;;;0.50;;
579;SDS011;276;48.392;9.950;2023-03-09T02:13:08;0.50;;;0.40;;
579;SDS011;276;48.392;9.950;2023-03-09T02:15:39;3.60;;;0.70;;
579;SDS011;276;48.392;9.950;2023-03-09T02:18:08;0.40;;;0.40;;
579;SDS011;276;48.392;9.950;2023-03-09T02:23:36;1.17;;;0.30;;
579;SDS011;276;48.392;9.950;2023-03-09T02:29:24;1.93;;;0.40;;
579;SDS011;276;48.392;9.950;2023-03-09T02:31:50;0.50;;;0.40;;
579;SDS011;276;48.392;9.950;2023-03-09T02:34:21;1.27;;;0.57;;
579;SDS011;276;48.392;9.950;2023-03-09T02:36:48;0.70;;;0.57;;
579;SDS011;276;48.392;9.950;2023-03-09T02:42:09;1.20;;;0.50;;
579;SDS011;276;48.392;9.950;2023-03-09T02:44:38;1.20;;;0.80;;
579;SDS011;276;48.392;9.950;2023-03-09T02:47:12;0.90;;;0.50;;
579;SDS011;276;48.392;9.950;2023-03-09T02:49:44;1.10;;;0.60;;
579;SDS011;276;48.392;9.950;2023-03-09T02:52:10;2.33;;;0.50;;
579;SDS011;276;48.392;9.950;2023-03-09T02:54:35;0.70;;;0.50;;
579;SDS011;276;48.392;9.950;2023-03-09T02:57:04;1.10;;;0.60;;
579;SDS011;276;48.392;9.950;2023-03-09T02:59:32;1.00;;;0.60;;
579;SDS011;276;48.392;9.950;2023-03-09T03:02:01;3.23;;;0.50;;
579;SDS011;276;48.392;9.950;2023-03-09T03:04:29;2.63;;;0.90;;
579;SDS011;276;48.392;9.950;2023-03-09T03:06:54;1.23;;;0.43;;
579;SDS011;276;48.392;9.950;2023-03-09T03:09:20;0.47;;;0.40;;
579;SDS011;276;48.392;9.950;2023-03-09T03:11:46;0.40;;;0.30;;
579;SDS011;276;48.392;9.950;2023-03-09T03:14:16;0.40;;;0.30;;
579;SDS011;276;48.392;9.950;2023-03-09T03:16:42;0.97;;;0.40;;
579;SDS011;276;48.392;9.950;2023-03-09T03:19:10;0.60;;;0.60;;
579;SDS011;276;48.392;9.950;2023-03-09T03:21:35;1.07;;;0.40;;
579;SDS011;276;48.392;9.950;2023-03-09T03:24:01;1.43;;;0.60;;
579;SDS011;276;48.392;9.950;2023-03-09T03:26:26;2.30;;;0.40;;
579;SDS011;276;48.392;9.950;2023-03-09T03:28:52;0.40;;;0.40;;
579;SDS011;276;48.392;9.950;2023-03-09T03:31:20;1.17;;;0.40;;
579;SDS011;276;48.392;9.950;2023-03-09T03:33:46;0.70;;;0.40;;
579;SDS011;276;48.392;9.950;2023-03-09T03:36:11;1.60;;;0.43;;
579;SDS011;276;48.392;9.950;2023-03-09T03:38:37;1.30;;;0.40;;
579;SDS011;276;48.392;9.950;2023-03-09T03:41:05;3.23;;;0.50;;
579;SDS011;276;48.392;9.950;2023-03-09T03:43:33;1.70;;;0.60;;
579;SDS011;276;48.392;9.950;2023-03-09T03:46:03;0.40;;;0.40;;
579;SDS011;276;48.392;9.950;2023-03-09T03:48:32;0.40;;;0.30;;
579;SDS011;276;48.392;9.950;2023-03-09T03:51:01;1.50;;;0.50;;
579;SDS011;276;48.392;9.950;2023-03-09T03:53:28;1.10;;;0.57;;
579;SDS011;276;48.392;9.950;2023-03-09T03:55:54;0.70;;;0.40;;
579;SDS011;276;48.392;9.950;2023-03-09T03:58:22;1.70;;;0.70;;
579;SDS011;276;48.392;9.950;2023-03-09T04:00:47;0.90;;;0.60;;
579;SDS011;276;48.392;9.950;2023-03-09T04:03:15;0.83;;;0.50;;
579;SDS011;276;48.392;9.950;2023-03-09T04:05:41;0.83;;;0.70;;
579;SDS011;276;48.392;9.950;2023-03-09T04:08:09;2.10;;;0.80;;
579;SDS011;276;48.392;9.950;2023-03-09T04:10:37;2.60;;;0.60;;
579;SDS011;276;48.392;9.950;2023-03-09T04:13:05;0.73;;;0.50;;
579;SDS011;276;48.392;9.950;2023-03-09T04:15:33;2.10;;;0.50;;
579;SDS011;276;48.392;9.950;2023-03-09T04:18:02;1.40;;;0.80;;
579;SDS011;276;48.392;9.950;2023-03-09T04:20:28;0.70;;;0.57;;
579;SDS011;276;48.392;9.950;2023-03-09T04:22:56;3.93;;;1.63;;
579;SDS011;276;48.392;9.950;2023-03-09T04:25:24;3.50;;;0.63;;
579;SDS011;276;48.392;9.950;2023-03-09T04:27:49;0.70;;;0.70;;
579;SDS011;276;48.392;9.950;2023-03-09T04:30:21;1.70;;;0.80;;
579;SDS011;276;48.392;9.950;2023-03-09T04:32:48;2.10;;;1.17;;
579;SDS011;276;48.392;9.950;2023-03-09T04:35:18;1.10;;;0.90;;
579;SDS011;276;48.392;9.950;2023-03-09T04:37:44;1.10;;;0.80;;
579;SDS011;276;48.392;9.950;2023-03-09T04:40:10;1.57;;;0.67;;
579;SDS011;276;48.392;9.950;2023-03-09T04:42:36;1.30;;;0.60;;
579;SDS011;276;48.392;9.950;2023-03-09T04:45:04;0.40;;;0.30;;
579;SDS011;276;48.392;9.950;2023-03-09T04:47:31;0.40;;;0.30;;
579;SDS011;276;48.392;9.950;2023-03-09T04:49:56;0.90;;;0.60;;
579;SDS011;276;48.392;9.950;2023-03-09T04:52:22;0.80;;;0.40;;
579;SDS011;276;48.392;9.950;2023-03-09T04:54:52;0.87;;;0.70;;
579;SDS011;276;48.392;9.950;2023-03-09T04:57:21;0.73;;;0.40;;
579;SDS011;276;48.392;9.950;2023-03-09T04:59:47;0.60;;;0.60;;
579;SDS011;276;48.392;9.950;2023-03-09T05:02:13;0.77;;;0.77;;
579;SDS011;276;48.392;9.950;2023-03-09T05:04:38;1.80;;;0.87;;
579;SDS011;276;48.392;9.950;2023-03-09T05:07:04;1.30;;;1.00;;
579;SDS011;276;48.392;9.950;2023-03-09T05:09:29;1.40;;;1.10;;
579;SDS011;276;48.392;9.950;2023-03-09T05:11:55;2.20;;;1.30;;
579;SDS011;276;48.392;9.950;2023-03-09T05:14:21;1.50;;;0.83;;
579;SDS011;276;48.392;9.950;2023-03-09T05:16:50;1.70;;;1.20;;
579;SDS011;276;48.392;9.950;2023-03-09T05:19:17;6.37;;;1.67;;
579;SDS011;276;48.392;9.950;2023-03-09T05:21:45;2.30;;;1.40;;
579;SDS011;276;48.392;9.950;2023-03-09T05:24:11;4.10;;;1.57;;
579;SDS011;276;48.392;9.950;2023-03-09T05:26:39;5.10;;;1.23;;
579;SDS011;276;48.392;9.950;2023-03-09T05:29:05;3.60;;;1.30;;
579;SDS011;276;48.392;9.950;2023-03-09T05:31:33;5.20;;;1.40;;
579;SDS011;276;48.392;9.950;2023-03-09T05:33:58;1.87;;;1.37;;
579;SDS011;276;48.392;9.950;2023-03-09T05:36:26;3.77;;;1.50;;
579;SDS011;276;48.392;9.950;2023-03-09T05:38:57;2.83;;;1.73;;
579;SDS011;276;48.392;9.950;2023-03-09T05:41:22;7.37;;;2.50;;
579;SDS011;276;48.392;9.950;2023-03-09T05:43:50;4.93;;;1.80;;
579;SDS011;276;48.392;9.950;2023-03-09T05:46:16;5.13;;;2.10;;
579;SDS011;276;48.392;9.950;2023-03-09T05:48:43;3.40;;;2.10;;
579;SDS011;276;48.392;9.950;2023-03-09T05:51:13;3.60;;;1.80;;
579;SDS011;276;48.392;9.950;2023-03-09T05:53:39;4.20;;;1.73;;
579;SDS011;276;48.392;9.950;2023-03-09T05:56:04;5.10;;;1.70;;
579;SDS011;276;48.392;9.950;2023-03-09T05:58:31;7.47;;;1.70;;
579;SDS011;276;48.392;9.950;2023-03-09T06:00:57;5.83;;;2.07;;
579;SDS011;276;48.392;9.950;2023-03-09T06:03:24;7.50;;;2.30;;
579;SDS011;276;48.392;9.950;2023-03-09T06:06:03;4.73;;;1.47;;
579;SDS011;276;48.392;9.950;2023-03-09T06:08:32;2.17;;;1.47;;
579;SDS011;276;48.392;9.950;2023-03-09T06:10:58;5.47;;;2.00;;
579;SDS011;276;48.392;9.950;2023-03-09T06:13:24;3.43;;;1.60;;
579;SDS011;276;48.392;9.950;2023-03-09T06:15:50;4.33;;;1.77;;
579;SDS011;276;48.392;9.950;2023-03-09T06:18:15;4.67;;;1.70;;
579;SDS011;276;48.392;9.950;2023-03-09T06:20:42;3.30;;;2.10;;
579;SDS011;276;48.392;9.950;2023-03-09T06:23:10;10.70;;;3.00;;
579;SDS011;276;48.392;9.950;2023-03-09T06:25:36;6.30;;;3.17;;
579;SDS011;276;48.392;9.950;2023-03-09T06:28:03;5.17;;;2.17;;
579;SDS011;276;48.392;9.950;2023-03-09T06:30:31;6.23;;;2.50;;
579;SDS011;276;48.392;9.950;2023-03-09T06:32:59;2.83;;;2.10;;
579;SDS011;276;48.392;9.950;2023-03-09T06:35:25;7.27;;;1.67;;
579;SDS011;276;48.392;9.950;2023-03-09T06:37:50;3.90;;;1.57;;
579;SDS011;276;48.392;9.950;2023-03-09T06:40:16;6.67;;;2.17;;
579;SDS011;276;48.392;9.950;2023-03-09T06:42:42;2.57;;;1.73;;
579;SDS011;276;48.392;9.950;2023-03-09T06:45:10;4.57;;;2.00;;
579;SDS011;276;48.392;9.950;2023-03-09T06:47:36;3.80;;;1.80;;
579;SDS011;276;48.392;9.950;2023-03-09T06:50:02;7.30;;;2.80;;
579;SDS011;276;48.392;9.950;2023-03-09T06:52:28;6.63;;;3.40;;
579;SDS011;276;48.392;9.950;2023-03-09T06:54:56;3.60;;;1.70;;
579;SDS011;276;48.392;9.950;2023-03-09T06:57:22;5.53;;;1.60;;
579;SDS011;276;48.392;9.950;2023-03-09T06:59:50;2.40;;;1.37;;
579;SDS011;276;48.392;9.950;2023-03-09T07:02:20;3.67;;;1.73;;
579;SDS011;276;48.392;9.950;2023-03-09T07:04:50;1.93;;;1.20;;
579;SDS011;276;48.392;9.950;2023-03-09T07:07:18;1.73;;;1.10;;
579;SDS011;276;48.392;9.950;2023-03-09T07:09:44;4.30;;;2.37;;
579;SDS011;276;48.392;9.950;2023-03-09T07:12:09;4.07;;;1.70;;
579;SDS011;276;48.392;9.950;2023-03-09T07:14:37;4.10;;;1.40;;
579;SDS011;276;48.392;9.950;2023-03-09T07:17:03;2.40;;;1.03;;
579;SDS011;276;48.392;9.950;2023-03-09T07:19:31;4.57;;;1.60;;
579;SDS011;276;48.392;9.950;2023-03-09T07:21:56;2.30;;;1.37;;
579;SDS011;276;48.392;9.950;2023-03-09T07:24:22;3.47;;;1.37;;
579;SDS011;276;48.392;9.950;2023-03-09T07:26:48;2.10;;;1.00;;
579;SDS011;276;48.392;9.950;2023-03-09T07:29:16;3.63;;;1.00;;
579;SDS011;276;48.392;9.950;2023-03-09T07:31:42;4.40;;;1.30;;
579;SDS011;276;48.392;9.950;2023-03-09T07:34:10;1.17;;;1.00;;
579;SDS011;276;48.392;9.950;2023-03-09T07:36:40;1.90;;;0.93;;
579;SDS011;276;48.392;9.950;2023-03-09T07:39:06;1.30;;;1.00;;
579;SDS011;276;48.392;9.950;2023-03-09T07:41:31;1.13;;;1.07;;
579;SDS011;276;48.392;9.950;2023-03-09T07:43:59;1.07;;;0.70;;
579;SDS011;276;48.392;9.950;2023-03-09T07:46:24;3.10;;;1.80;;
579;SDS011;276;48.392;9.950;2023-03-09T07:48:50;2.10;;;1.40;;
579;SDS011;276;48.392;9.950;2023-03-09T07:51:16;4.87;;;1.53;;
579;SDS011;276;48.392;9.950;2023-03-09T07:53:43;3.53;;;1.87;;
579;SDS011;276;48.392;9.950;2023-03-09T07:56:08;0.90;;;0.87;;
579;SDS011;276;48.392;9.950;2023-03-09T07:58:35;2.90;;;1.13;;
579;SDS011;276;48.392;9.950;2023-03-09T08:01:02;3.20;;;1.40;;
579;SDS011;276;48.392;9.950;2023-03-09T08:03:29;3.50;;;1.50;;
579;SDS011;276;48.392;9.950;2023-03-09T08:05:59;1.90;;;1.00;;
579;SDS011;276;48.392;9.950;2023-03-09T08:08:25;2.80;;;1.10;;
579;SDS011;276;48.392;9.950;2023-03-09T08:10:51;4.03;;;1.40;;
579;SDS011;276;48.392;9.950;2023-03-09T08:13:17;1.30;;;1.00;;
579;SDS011;276;48.392;9.950;2023-03-09T08:15:44;1.80;;;1.40;;
579;SDS011;276;48.392;9.950;2023-03-09T08:18:11;12.40;;;2.57;;
579;SDS011;276;48.392;9.950;2023-03-09T08:20:39;3.57;;;1.37;;
579;SDS011;276;48.392;9.950;2023-03-09T08:23:05;5.60;;;1.23;;
579;SDS011;276;48.392;9.950;2023-03-09T08:25:32;3.03;;;1.50;;
579;SDS011;276;48.392;9.950;2023-03-09T08:27:58;4.50;;;1.53;;
579;SDS011;276;48.392;9.950;2023-03-09T08:30:24;1.53;;;1.43;;
579;SDS011;276;48.392;9.950;2023-03-09T08:32:51;1.90;;;1.80;;
579;SDS011;276;48.392;9.950;2023-03-09T08:35:21;3.70;;;1.80;;
579;SDS011;276;48.392;9.950;2023-03-09T08:37:53;1.67;;;0.90;;
579;SDS011;276;48.392;9.950;2023-03-09T08:40:21;2.37;;;1.30;;
579;SDS011;276;48.392;9.950;2023-03-09T08:42:46;1.47;;;1.37;;
579;SDS011;276;48.392;9.950;2023-03-09T08:45:12;1.63;;;1.20;;
579;SDS011;276;48.392;9.950;2023-03-09T08:47:38;7.90;;;1.47;;
579;SDS011;276;48.392;9.950;2023-03-09T08:50:03;4.23;;;1.80;;
579;SDS011;276;48.392;9.950;2023-03-09T08:52:34;3.20;;;1.40;;
579;SDS011;276;48.392;9.950;2023-03-09T08:55:03;4.40;;;1.60;;
579;SDS011;276;48.392;9.950;2023-03-09T08:57:32;3.10;;;1.63;;
579;SDS011;276;48.392;9.950;2023-03-09T08:59:58;2.77;;;1.40;;
579;SDS011;276;48.392;9.950;2023-03-09T09:02:25;1.83;;;1.30;;
579;SDS011;276;48.392;9.950;2023-03-09T09:04:53;2.50;;;1.57;;
579;SDS011;276;48.392;9.950;2023-03-09T09:07:18;3.37;;;1.50;;
579;SDS011;276;48.392;9.950;2023-03-09T09:09:47;6.50;;;1.50;;
579;SDS011;276;48.392;9.950;2023-03-09T09:12:15;1.70;;;1.40;;
579;SDS011;276;48.392;9.950;2023-03-09T09:14:43;1.40;;;1.20;;
579;SDS011;276;48.392;9.950;2023-03-09T09:17:08;3.40;;;1.40;;
579;SDS011;276;48.392;9.950;2023-03-09T09:19:36;5.40;;;2.23;;
579;SDS011;276;48.392;9.950;2023-03-09T09:22:03;4.87;;;1.77;;
579;SDS011;276;48.392;9.950;2023-03-09T09:24:35;3.40;;;1.07;;
579;SDS011;276;48.392;9.950;2023-03-09T09:27:02;2.63;;;1.80;;
579;SDS011;276;48.392;9.950;2023-03-09T09:29:28;3.73;;;1.30;;
579;SDS011;276;48.392;9.950;2023-03-09T09:31:54;2.60;;;1.37;;
579;SDS011;276;48.392;9.950;2023-03-09T09:34:22;4.83;;;2.40;;
579;SDS011;276;48.392;9.950;2023-03-09T09:36:47;8.17;;;2.87;;
579;SDS011;276;48.392;9.950;2023-03-09T09:39:13;6.53;;;1.57;;
579;SDS011;276;48.392;9.950;2023-03-09T09:41:46;5.23;;;1.20;;
579;SDS011;276;48.392;9.950;2023-03-09T09:44:15;4.30;;;1.40;;
579;SDS011;276;48.392;9.950;2023-03-09T09:47:03;10.10;;;2.03;;
579;SDS011;276;48.392;9.950;2023-03-09T09:49:38;5.00;;;1.43;;
579;SDS011;276;48.392;9.950;2023-03-09T09:52:12;2.30;;;0.93;;
579;SDS011;276;48.392;9.950;2023-03-09T09:57:22;3.83;;;1.27;;
579;SDS011;276;48.392;9.950;2023-03-09T10:08:12;8.30;;;1.70;;
579;SDS011;276;48.392;9.950;2023-03-09T10:10:47;3.60;;;1.23;;
579;SDS011;276;48.392;9.950;2023-03-09T10:13:20;5.83;;;1.80;;
579;SDS011;276;48.392;9.950;2023-03-09T10:15:56;4.63;;;1.53;;
579;SDS011;276;48.392;9.950;2023-03-09T10:18:46;7.60;;;1.63;;
579;SDS011;276;48.392;9.950;2023-03-09T10:21:19;3.20;;;1.23;;
579;SDS011;276;48.392;9.950;2023-03-09T10:23:50;2.40;;;1.00;;
579;SDS011;276;48.392;9.950;2023-03-09T10:26:21;2.03;;;1.00;;
579;SDS011;276;48.392;9.950;2023-03-09T10:28:54;2.40;;;1.00;;
579;SDS011;276;48.392;9.950;2023-03-09T10:34:23;4.37;;;2.50;;
579;SDS011;276;48.392;9.950;2023-03-09T10:36:57;1.00;;;0.67;;
579;SDS011;276;48.392;9.950;2023-03-09T10:39:40;4.60;;;1.50;;
579;SDS011;276;48.392;9.950;2023-03-09T10:42:21;1.00;;;0.73;;
579;SDS011;276;48.392;9.950;2023-03-09T10:47:55;4.17;;;1.30;;
579;SDS011;276;48.392;9.950;2023-03-09T10:50:22;1.30;;;0.53;;
579;SDS011;276;48.392;9.950;2023-03-09T10:52:50;2.67;;;0.90;;
579;SDS011;276;48.392;9.950;2023-03-09T10:57:59;1.63;;;0.83;;
579;SDS011;276;48.392;9.950;2023-03-09T11:00:47;1.13;;;0.90;;
579;SDS011;276;48.392;9.950;2023-03-09T11:03:23;2.60;;;1.30;;
579;SDS011;276;48.392;9.950;2023-03-09T11:05:50;3.77;;;1.83;;
579;SDS011;276;48.392;9.950;2023-03-09T11:08:23;5.40;;;0.90;;
579;SDS011;276;48.392;9.950;2023-03-09T11:11:05;3.50;;;1.23;;
579;SDS011;276;48.392;9.950;2023-03-09T11:13:32;9.83;;;2.40;;
579;SDS011;276;48.392;9.950;2023-03-09T11:18:46;2.23;;;1.17;;
579;SDS011;276;48.392;9.950;2023-03-09T11:21:20;3.10;;;1.20;;
579;SDS011;276;48.392;9.950;2023-03-09T11:23:53;4.20;;;1.57;;
579;SDS011;276;48.392;9.950;2023-03-09T11:31:45;1.53;;;0.73;;
579;SDS011;276;48.392;9.950;2023-03-09T11:34:20;4.17;;;0.70;;
579;SDS011;276;48.392;9.950;2023-03-09T11:36:52;5.00;;;1.40;;
579;SDS011;276;48.392;9.950;2023-03-09T11:42:15;3.17;;;1.00;;
579;SDS011;276;48.392;9.950;2023-03-09T11:44:45;4.10;;;1.30;;
579;SDS011;276;48.392;9.950;2023-03-09T11:47:25;3.50;;;0.93;;
579;SDS011;276;48.392;9.950;2023-03-09T11:50:21;2.47;;;0.90;;
579;SDS011;276;48.392;9.950;2023-03-09T11:53:04;1.20;;;0.50;;
579;SDS011;276;48.392;9.950;2023-03-09T11:55:40;2.53;;;1.00;;
579;SDS011;276;48.392;9.950;2023-03-09T11:58:10;1.90;;;1.10;;
579;SDS011;276;48.392;9.950;2023-03-09T12:00:43;3.60;;;1.10;;
579;SDS011;276;48.392;9.950;2023-03-09T12:03:15;4.90;;;1.20;;
579;SDS011;276;48.392;9.950;2023-03-09T12:05:51;1.40;;;0.90;;
579;SDS011;276;48.392;9.950;2023-03-09T12:08:25;4.93;;;1.10;;
579;SDS011;276;48.392;9.950;2023-03-09T12:11:21;0.70;;;0.70;;
579;SDS011;276;48.392;9.950;2023-03-09T12:14:01;2.80;;;0.77;;
579;SDS011;276;48.392;9.950;2023-03-09T12:16:38;3.37;;;1.13;;
579;SDS011;276;48.392;9.950;2023-03-09T12:21:38;2.30;;;1.00;;
579;SDS011;276;48.392;9.950;2023-03-09T12:24:19;1.33;;;0.60;;
579;SDS011;276;48.392;9.950;2023-03-09T12:26:45;4.50;;;1.13;;
579;SDS011;276;48.392;9.950;2023-03-09T12:29:25;2.50;;;1.03;;
579;SDS011;276;48.392;9.950;2023-03-09T12:34:49;1.50;;;0.70;;
579;SDS011;276;48.392;9.950;2023-03-09T12:42:43;4.23;;;1.10;;
579;SDS011;276;48.392;9.950;2023-03-09T12:50:25;1.37;;;0.90;;
579;SDS011;276;48.392;9.950;2023-03-09T12:53:17;4.10;;;1.47;;
579;SDS011;276;48.392;9.950;2023-03-09T13:00:51;2.43;;;1.00;;
579;SDS011;276;48.392;9.950;2023-03-09T13:03:38;3.27;;;1.17;;
579;SDS011;276;48.392;9.950;2023-03-09T13:11:38;4.33;;;1.23;;
579;SDS011;276;48.392;9.950;2023-03-09T13:26:53;5.50;;;1.67;;
579;SDS011;276;48.392;9.950;2023-03-09T13:29:24;1.77;;;1.20;;
579;SDS011;276;48.392;9.950;2023-03-09T13:31:51;3.13;;;1.27;;
579;SDS011;276;48.392;9.950;2023-03-09T13:34:21;2.20;;;0.90;;
579;SDS011;276;48.392;9.950;2023-03-09T13:36:48;1.77;;;1.40;;
579;SDS011;276;48.392;9.950;2023-03-09T13:39:17;8.07;;;4.07;;
579;SDS011;276;48.392;9.950;2023-03-09T13:41:49;2.70;;;1.50;;
579;SDS011;276;48.392;9.950;2023-03-09T13:44:20;4.53;;;1.60;;
579;SDS011;276;48.392;9.950;2023-03-09T13:46:52;2.40;;;1.20;;
579;SDS011;276;48.392;9.950;2023-03-09T13:51:55;0.80;;;0.60;;
579;SDS011;276;48.392;9.950;2023-03-09T13:57:20;1.87;;;0.80;;
579;SDS011;276;48.392;9.950;2023-03-09T14:02:44;3.00;;;0.80;;
579;SDS011;276;48.392;9.950;2023-03-09T14:13:05;1.20;;;1.10;;
579;SDS011;276;48.392;9.950;2023-03-09T14:15:52;3.17;;;1.37;;
579;SDS011;276;48.392;9.950;2023-03-09T14:21:22;1.10;;;0.73;;
579;SDS011;276;48.392;9.950;2023-03-09T14:26:41;1.73;;;1.10;;
579;SDS011;276;48.392;9.950;2023-03-09T14:34:41;1.23;;;0.77;;
579;SDS011;276;48.392;9.950;2023-03-09T14:37:13;0.97;;;0.47;;
579;SDS011;276;48.392;9.950;2023-03-09T14:39:49;0.83;;;0.57;;
579;SDS011;276;48.392;9.950;2023-03-09T14:47:33;2.30;;;0.60;;
579;SDS011;276;48.392;9.950;2023-03-09T14:50:02;0.70;;;0.70;;
579;SDS011;276;48.392;9.950;2023-03-09T14:52:37;3.80;;;1.33;;
579;SDS011;276;48.392;9.950;2023-03-09T14:55:02;1.07;;;0.57;;
579;SDS011;276;48.392;9.950;2023-03-09T14:57:33;2.03;;;0.90;;
579;SDS011;276;48.392;9.950;2023-03-09T14:59:59;1.63;;;0.67;;
579;SDS011;276;48.392;9.950;2023-03-09T15:02:24;1.00;;;0.53;;
579;SDS011;276;48.392;9.950;2023-03-09T15:04:53;2.57;;;0.90;;
579;SDS011;276;48.392;9.950;2023-03-09T15:07:21;1.80;;;0.70;;
579;SDS011;276;48.392;9.950;2023-03-09T15:09:46;1.80;;;0.70;;
579;SDS011;276;48.392;9.950;2023-03-09T15:12:14;0.80;;;0.77;;
579;SDS011;276;48.392;9.950;2023-03-09T15:14:46;0.90;;;0.50;;
579;SDS011;276;48.392;9.950;2023-03-09T15:17:14;3.00;;;0.57;;
579;SDS011;276;48.392;9.950;2023-03-09T15:19:42;1.03;;;1.03;;
579;SDS011;276;48.392;9.950;2023-03-09T15:22:09;1.57;;;0.60;;
579;SDS011;276;48.392;9.950;2023-03-09T15:24:37;1.77;;;1.10;;
579;SDS011;276;48.392;9.950;2023-03-09T15:27:03;2.17;;;0.70;;
579;SDS011;276;48.392;9.950;2023-03-09T15:29:29;2.60;;;1.20;;
579;SDS011;276;48.392;9.950;2023-03-09T15:31:54;4.13;;;1.40;;
579;SDS011;276;48.392;9.950;2023-03-09T15:34:26;1.53;;;0.90;;
579;SDS011;276;48.392;9.950;2023-03-09T15:36:52;2.07;;;1.20;;
579;SDS011;276;48.392;9.950;2023-03-09T15:39:17;2.37;;;1.17;;
579;SDS011;276;48.392;9.950;2023-03-09T15:41:43;2.53;;;1.13;;
579;SDS011;276;48.392;9.950;2023-03-09T15:44:11;4.03;;;1.50;;
579;SDS011;276;48.392;9.950;2023-03-09T15:46:36;2.20;;;1.10;;
579;SDS011;276;48.392;9.950;2023-03-09T15:49:06;7.43;;;1.93;;
579;SDS011;276;48.392;9.950;2023-03-09T15:51:32;2.40;;;1.00;;
579;SDS011;276;48.392;9.950;2023-03-09T15:54:04;3.57;;;1.80;;
579;SDS011;276;48.392;9.950;2023-03-09T15:56:31;3.33;;;2.53;;
579;SDS011;276;48.392;9.950;2023-03-09T15:58:59;3.27;;;1.90;;
579;SDS011;276;48.392;9.950;2023-03-09T16:01:29;3.10;;;1.50;;
579;SDS011;276;48.392;9.950;2023-03-09T16:03:55;3.30;;;1.37;;
579;SDS011;276;48.392;9.950;2023-03-09T16:06:21;5.33;;;1.33;;
579;SDS011;276;48.392;9.950;2023-03-09T16:08:48;2.00;;;1.20;;
579;SDS011;276;48.392;9.950;2023-03-09T16:11:16;4.27;;;1.87;;
579;SDS011;276;48.392;9.950;2023-03-09T16:13:45;4.37;;;1.00;;
579;SDS011;276;48.392;9.950;2023-03-09T16:16:13;4.10;;;1.70;;
579;SDS011;276;48.392;9.950;2023-03-09T16:18:41;1.53;;;1.40;;
579;SDS011;276;48.392;9.950;2023-03-09T16:21:11;2.33;;;1.63;;
579;SDS011;276;48.392;9.950;2023-03-09T16:23:39;4.10;;;1.73;;
579;SDS011;276;48.392;9.950;2023-03-09T16:26:05;2.63;;;1.70;;
579;SDS011;276;48.392;9.950;2023-03-09T16:28:31;3.30;;;2.13;;
579;SDS011;276;48.392;9.950;2023-03-09T16:30:58;4.03;;;1.40;;
579;SDS011;276;48.392;9.950;2023-03-09T16:33:29;3.23;;;1.33;;
579;SDS011;276;48.392;9.950;2023-03-09T16:36:00;3.70;;;2.13;;
579;SDS011;276;48.392;9.950;2023-03-09T16:38:27;2.63;;;1.27;;
579;SDS011;276;48.392;9.950;2023-03-09T16:40:53;4.67;;;1.30;;
579;SDS011;276;48.392;9.950;2023-03-09T16:43:18;2.90;;;1.47;;
579;SDS011;276;48.392;9.950;2023-03-09T16:45:53;4.10;;;1.87;;
579;SDS011;276;48.392;9.950;2023-03-09T16:48:23;3.27;;;2.27;;
579;SDS011;276;48.392;9.950;2023-03-09T16:50:52;3.77;;;1.50;;
579;SDS011;276;48.392;9.950;2023-03-09T16:53:25;6.70;;;1.80;;
579;SDS011;276;48.392;9.950;2023-03-09T16:55:58;4.87;;;1.93;;
579;SDS011;276;48.392;9.950;2023-03-09T16:58:25;4.73;;;1.60;;
579;SDS011;276;48.392;9.950;2023-03-09T17:00:51;4.37;;;1.83;;
579;SDS011;276;48.392;9.950;2023-03-09T17:03:20;4.07;;;1.97;;
579;SDS011;276;48.392;9.950;2023-03-09T17:05:46;2.00;;;1.30;;
579;SDS011;276;48.392;9.950;2023-03-09T17:08:13;2.40;;;1.50;;
579;SDS011;276;48.392;9.950;2023-03-09T17:10:42;2.10;;;1.40;;
579;SDS011;276;48.392;9.950;2023-03-09T17:13:09;4.13;;;1.40;;
579;SDS011;276;48.392;9.950;2023-03-09T17:15:35;4.50;;;1.70;;
579;SDS011;276;48.392;9.950;2023-03-09T17:18:01;2.93;;;1.73;;
579;SDS011;276;48.392;9.950;2023-03-09T17:20:27;2.80;;;1.77;;
579;SDS011;276;48.392;9.950;2023-03-09T17:22:52;3.30;;;2.30;;
579;SDS011;276;48.392;9.950;2023-03-09T17:25:22;2.83;;;1.53;;
579;SDS011;276;48.392;9.950;2023-03-09T17:27:49;2.87;;;1.70;;
579;SDS011;276;48.392;9.950;2023-03-09T17:30:16;4.77;;;1.50;;
579;SDS011;276;48.392;9.950;2023-03-09T17:32:46;3.67;;;1.47;;
579;SDS011;276;48.392;9.950;2023-03-09T17:35:12;4.03;;;1.90;;
579;SDS011;276;48.392;9.950;2023-03-09T17:37:40;2.50;;;1.50;;
579;SDS011;276;48.392;9.950;2023-03-09T17:40:07;3.07;;;2.37;;
579;SDS011;276;48.392;9.950;2023-03-09T17:42:36;2.60;;;1.40;;
579;SDS011;276;48.392;9.950;2023-03-09T17:45:05;1.63;;;1.20;;
579;SDS011;276;48.392;9.950;2023-03-09T17:47:32;2.17;;;1.40;;
579;SDS011;276;48.392;9.950;2023-03-09T17:49:59;3.93;;;2.40;;
579;SDS011;276;48.392;9.950;2023-03-09T17:52:25;2.43;;;2.10;;
579;SDS011;276;48.392;9.950;2023-03-09T17:54:53;2.10;;;1.60;;
579;SDS011;276;48.392;9.950;2023-03-09T17:57:19;2.60;;;1.70;;